Time;durP1;ratioP1;P1;durP2;ratioP2;P2;SDS_P1;SDS_P2;PMS_P1;PMS_P2;Temp;Humidity;BMP_temperature;BMP_pressure;BME280_temperature;BME280_humidity;BME280_pressure;Samples;Min_cycle;Max_cycle;Signal;HPM_P1;HPM_P2
2022/12/28 00:01:51;;;;;;;3.23;2.60;;;;;;;6.05;74.87;96441.13;6125964;23;20220;-83
2022/12/28 00:04:17;;;;;;;3.83;2.30;;;;;;;6.05;74.83;96436.84;6124839;23;20533;-83
2022/12/28 00:06:44;;;;;;;3.63;2.70;;;;;;;5.97;75.50;96434.09;6124213;23;20194;-81
2022/12/28 00:09:11;;;;;;;3.23;2.30;;;;;;;5.96;75.91;96436.81;6124765;23;20892;-83
2022/12/28 00:11:38;;;;;;;2.77;2.43;;;;;;;5.95;75.34;96435.19;6125350;23;20195;-84
2022/12/28 00:14:04;;;;;;;3.20;2.13;;;;;;;5.96;75.52;96421.47;6124725;23;20202;-82
2022/12/28 00:16:34;;;;;;;2.53;2.20;;;;;;;6.00;75.39;96428.72;6124677;23;20621;-83
2022/12/28 00:19:03;;;;;;;2.33;2.13;;;;;;;6.03;74.79;96423.38;6124904;23;20183;-81
2022/12/28 00:21:31;;;;;;;3.37;2.60;;;;;;;5.98;75.09;96422.94;6124938;23;20562;-81
2022/12/28 00:23:59;;;;;;;3.00;2.70;;;;;;;5.92;75.03;96426.03;6124683;23;20250;-83
2022/12/28 00:26:26;;;;;;;2.80;2.43;;;;;;;5.90;75.41;96427.88;6124452;23;20461;-81
2022/12/28 00:28:53;;;;;;;3.80;2.20;;;;;;;5.85;75.07;96433.34;6124512;23;20179;-83
2022/12/28 00:31:19;;;;;;;2.80;2.50;;;;;;;5.83;75.27;96432.66;6124350;23;20223;-83
2022/12/28 00:33:47;;;;;;;4.37;2.70;;;;;;;5.85;75.40;96435.91;6123962;23;20200;-83
2022/12/28 00:36:14;;;;;;;3.03;2.60;;;;;;;5.82;75.88;96427.66;6125043;23;20179;-83
2022/12/28 00:38:41;;;;;;;2.43;2.20;;;;;;;5.77;75.40;96428.03;6123964;23;20190;-83
2022/12/28 00:41:08;;;;;;;3.67;2.30;;;;;;;5.81;75.81;96421.75;6124772;23;20191;-82
2022/12/28 00:43:35;;;;;;;2.47;2.27;;;;;;;5.86;75.70;96414.53;6123808;23;20276;-82
2022/12/28 00:46:02;;;;;;;2.57;2.10;;;;;;;5.81;75.71;96405.59;6124160;23;20183;-83
2022/12/28 00:48:29;;;;;;;3.77;2.13;;;;;;;5.83;75.42;96409.66;6124530;23;20179;-84
2022/12/28 00:51:02;;;;;;;2.23;2.00;;;;;;;5.83;75.58;96403.72;6124423;23;20193;-81
2022/12/28 00:53:29;;;;;;;2.30;2.10;;;;;;;5.71;76.24;96407.31;6124276;23;20196;-82
2022/12/28 00:55:55;;;;;;;2.60;1.90;;;;;;;5.74;75.95;96409.63;6123784;23;20840;-82
2022/12/28 00:58:22;;;;;;;2.30;2.10;;;;;;;5.78;76.05;96421.19;6123380;23;20231;-83
2022/12/28 01:00:49;;;;;;;2.10;1.90;;;;;;;5.80;75.73;96409.91;6124348;23;20184;-82
2022/12/28 01:03:15;;;;;;;2.83;1.70;;;;;;;5.79;76.04;96410.03;6123399;23;20309;-82
2022/12/28 01:05:42;;;;;;;2.43;2.00;;;;;;;5.80;75.92;96421.88;6123523;23;20195;-82
2022/12/28 01:08:09;;;;;;;2.43;2.20;;;;;;;5.77;76.14;96417.03;6124345;23;20186;-82
2022/12/28 01:10:38;;;;;;;2.13;1.90;;;;;;;5.75;76.33;96408.69;6124014;23;20183;-82
2022/12/28 01:13:05;;;;;;;2.33;1.90;;;;;;;5.71;76.32;96397.91;6124135;23;20208;-82
2022/12/28 01:15:31;;;;;;;1.93;1.80;;;;;;;5.71;76.25;96397.09;6124490;23;20183;-83
2022/12/28 01:17:58;;;;;;;2.77;1.90;;;;;;;5.71;76.40;96405.56;6123975;23;20179;-81
2022/12/28 01:20:24;;;;;;;1.70;1.60;;;;;;;5.71;76.17;96405.56;6124180;23;20239;-82
2022/12/28 01:22:51;;;;;;;2.07;1.77;;;;;;;5.75;75.88;96416.34;6124346;23;20199;-83
2022/12/28 01:25:18;;;;;;;2.07;1.87;;;;;;;5.74;76.14;96418.09;6124182;23;20246;-83
2022/12/28 01:27:45;;;;;;;2.30;1.70;;;;;;;5.75;75.82;96424.81;6123892;23;20176;-83
2022/12/28 01:30:13;;;;;;;1.57;1.47;;;;;;;5.75;75.74;96426.56;6124134;23;20183;-83
2022/12/28 01:32:40;;;;;;;2.63;1.70;;;;;;;5.73;75.73;96428.44;6122360;23;20204;-82
2022/12/28 01:35:09;;;;;;;1.90;1.70;;;;;;;5.73;75.95;96426.69;6124549;23;20179;-83
2022/12/28 01:37:35;;;;;;;1.83;1.60;;;;;;;5.74;75.36;96422.41;6123890;23;20179;-83
2022/12/28 01:40:01;;;;;;;3.50;1.87;;;;;;;5.71;75.58;96413.22;6123951;23;20521;-81
2022/12/28 01:42:29;;;;;;;1.70;1.60;;;;;;;5.72;75.49;96425.06;6124613;23;20195;-82
2022/12/28 01:44:55;;;;;;;1.63;1.50;;;;;;;5.67;75.87;96411.84;6124061;23;20176;-83
2022/12/28 01:47:24;;;;;;;1.53;1.43;;;;;;;5.67;76.10;96409.31;6124012;23;20242;-81
2022/12/28 01:49:59;;;;;;;1.60;1.50;;;;;;;5.66;76.34;96396.66;6124292;23;20186;-83
2022/12/28 01:52:31;;;;;;;1.77;1.67;;;;;;;5.70;76.14;96393.72;6124408;23;20214;-83
2022/12/28 01:55:03;;;;;;;2.20;2.00;;;;;;;5.65;76.08;96384.81;6123454;23;20718;-83
2022/12/28 01:57:33;;;;;;;1.90;1.50;;;;;;;5.62;76.30;96388.44;6123890;23;20538;-81
2022/12/28 02:00:03;;;;;;;1.43;1.33;;;;;;;5.60;76.50;96379.25;6123845;23;20164;-81
2022/12/28 02:02:30;;;;;;;1.37;1.27;;;;;;;5.46;77.01;96370.19;6124118;23;20214;-83
2022/12/28 02:04:58;;;;;;;1.77;1.50;;;;;;;5.48;77.25;96358.09;6124267;23;20207;-83
2022/12/28 02:07:35;;;;;;;1.67;1.30;;;;;;;5.48;76.66;96360.66;6124209;23;20171;-83
2022/12/28 02:10:02;;;;;;;1.50;1.40;;;;;;;5.47;76.79;96348.81;6124951;23;20684;-82
2022/12/28 02:12:28;;;;;;;1.40;1.30;;;;;;;5.37;77.73;96358.19;6125705;23;20204;-82
2022/12/28 02:14:56;;;;;;;3.40;1.50;;;;;;;5.35;77.69;96354.94;6125466;23;20254;-83
2022/12/28 02:17:23;;;;;;;2.90;1.43;;;;;;;5.36;77.92;96351.47;6125482;23;20207;-83
2022/12/28 02:19:49;;;;;;;1.60;1.50;;;;;;;5.39;77.53;96351.19;6125736;23;20230;-83
2022/12/28 02:22:42;;;;;;;1.70;1.60;;;;;;;5.32;77.61;96343.25;6124828;23;20180;-82
2022/12/28 02:25:29;;;;;;;1.40;1.30;;;;;;;5.26;78.37;96340.38;6112226;23;20187;-82
2022/12/28 02:28:08;;;;;;;1.43;1.33;;;;;;;5.26;78.56;96337.81;6125777;23;20156;-83
2022/12/28 02:30:43;;;;;;;2.10;1.30;;;;;;;5.31;78.16;96335.69;6125727;23;20219;-82
2022/12/28 02:33:19;;;;;;;1.20;1.10;;;;;;;5.33;78.15;96329.53;6124047;23;20207;-83
2022/12/28 02:35:54;;;;;;;1.27;1.17;;;;;;;5.37;78.32;96336.03;6125689;23;20215;-82
2022/12/28 02:38:26;;;;;;;1.43;1.27;;;;;;;5.39;77.83;96336.69;6124908;23;20226;-83
2022/12/28 02:40:57;;;;;;;1.40;1.30;;;;;;;5.44;77.37;96334.56;6126004;23;20192;-82
2022/12/28 02:43:24;;;;;;;1.27;1.13;;;;;;;5.45;77.38;96341.28;6126542;23;20254;-82
2022/12/28 02:51:41;;;;;;;1.93;1.20;;;;;;;5.48;76.72;96322.34;6125653;23;20167;-82
2022/12/28 02:57:26;;;;;;;1.10;1.00;;;;;;;5.49;77.16;96321.41;6126324;23;20178;-82
2022/12/28 03:00:04;;;;;;;1.37;1.20;;;;;;;5.45;77.36;96315.75;6125390;23;20171;-82
2022/12/28 03:03:10;;;;;;;1.37;1.27;;;;;;;5.35;77.54;96307.25;6125705;23;20195;-83
2022/12/28 03:08:39;;;;;;;1.30;1.20;;;;;;;5.27;77.50;96291.72;6125281;23;20163;-83
2022/12/28 03:11:10;;;;;;;1.30;1.20;;;;;;;5.28;77.86;96290.81;6125085;23;20377;-83
2022/12/28 03:13:43;;;;;;;1.37;1.27;;;;;;;5.27;78.04;96286.63;6125772;23;20207;-83
2022/12/28 03:16:14;;;;;;;1.30;1.20;;;;;;;5.22;77.91;96279.34;6125161;23;20164;-83
2022/12/28 03:32:40;;;;;;;1.13;1.10;;;;;;;5.21;78.36;96271.81;6124391;23;20265;-83
2022/12/28 03:35:09;;;;;;;1.53;1.43;;;;;;;5.25;78.17;96260.41;6124972;23;20179;-83
2022/12/28 03:37:42;;;;;;;1.47;1.20;;;;;;;5.18;78.26;96256.78;6124535;23;20187;-82
2022/12/28 03:40:13;;;;;;;1.47;1.33;;;;;;;5.21;78.49;96256.50;6124056;23;20618;-83
2022/12/28 03:45:36;;;;;;;1.30;1.20;;;;;;;5.17;78.73;96234.72;6124930;23;20187;-83
2022/12/28 03:48:03;;;;;;;1.40;1.30;;;;;;;5.20;78.32;96225.06;6124870;23;20164;-83
2022/12/28 03:50:34;;;;;;;1.33;1.23;;;;;;;5.20;78.73;96219.94;6124795;23;20183;-82
2022/12/28 03:53:00;;;;;;;1.63;1.20;;;;;;;5.17;78.72;96214.31;6124759;23;20208;-83
2022/12/28 03:55:27;;;;;;;1.20;1.10;;;;;;;5.17;78.55;96224.53;6125056;23;20179;-83
2022/12/28 03:57:53;;;;;;;1.40;1.30;;;;;;;5.21;78.17;96224.13;6124259;23;20573;-82
2022/12/28 04:00:20;;;;;;;1.40;1.10;;;;;;;5.19;78.08;96223.47;6124380;23;20238;-83
2022/12/28 04:02:46;;;;;;;1.20;1.10;;;;;;;5.25;77.92;96219.56;6125250;23;20203;-82
2022/12/28 04:05:14;;;;;;;1.20;1.10;;;;;;;5.31;78.32;96226.72;6124462;23;20254;-82
2022/12/28 04:07:42;;;;;;;1.30;1.20;;;;;;;5.33;77.61;96218.94;6124550;23;20180;-82
2022/12/28 04:10:09;;;;;;;1.03;0.93;;;;;;;5.32;78.09;96214.78;6124955;23;20183;-83
2022/12/28 04:12:35;;;;;;;0.90;0.90;;;;;;;5.35;77.47;96217.88;6124049;23;20231;-82
2022/12/28 04:15:02;;;;;;;1.20;1.10;;;;;;;5.34;77.63;96210.34;6123957;23;20184;-84
2022/12/28 04:17:28;;;;;;;2.13;1.10;;;;;;;5.31;77.91;96210.59;6124717;23;20176;-83
2022/12/28 04:19:55;;;;;;;1.10;1.00;;;;;;;5.30;77.74;96212.34;6124357;23;20709;-83
2022/12/28 04:22:21;;;;;;;1.37;1.27;;;;;;;5.37;77.74;96210.91;6124189;23;20179;-83
2022/12/28 04:24:49;;;;;;;1.47;1.23;;;;;;;5.42;77.43;96215.59;6125592;23;20183;-83
2022/12/28 04:27:16;;;;;;;2.20;1.30;;;;;;;5.48;77.14;96210.78;6123802;23;20180;-83
2022/12/28 04:29:42;;;;;;;1.80;1.10;;;;;;;5.57;76.70;96213.53;6124625;23;20190;-83
2022/12/28 04:32:08;;;;;;;1.13;1.03;;;;;;;5.53;76.81;96216.31;6123626;23;20565;-83
2022/12/28 04:34:35;;;;;;;1.30;1.20;;;;;;;5.51;76.53;96209.72;6124618;23;20183;-82
2022/12/28 04:37:01;;;;;;;1.20;1.10;;;;;;;5.52;76.72;96214.72;6124184;23;20179;-82
2022/12/28 04:39:28;;;;;;;0.97;0.97;;;;;;;5.55;76.78;96216.19;6124635;23;20179;-82
2022/12/28 04:41:55;;;;;;;1.30;1.20;;;;;;;5.61;76.27;96215.66;6123916;23;20840;-81
2022/12/28 04:44:22;;;;;;;1.30;1.20;;;;;;;5.62;76.23;96208.81;6123886;23;20206;-83
2022/12/28 04:46:48;;;;;;;1.40;1.30;;;;;;;5.64;76.10;96207.75;6124631;23;20183;-83
2022/12/28 04:49:15;;;;;;;1.57;1.30;;;;;;;5.65;76.46;96211.91;6124137;23;20560;-81
2022/12/28 04:51:41;;;;;;;1.53;1.27;;;;;;;5.63;76.06;96211.22;6124904;23;20652;-83
2022/12/28 04:54:11;;;;;;;1.30;1.10;;;;;;;5.64;76.00;96217.97;6124294;23;20700;-83
2022/12/28 04:56:38;;;;;;;1.40;1.30;;;;;;;5.61;76.36;96204.63;6124015;23;20179;-81
2022/12/28 04:59:06;;;;;;;1.77;1.07;;;;;;;5.60;76.03;96197.91;6124471;23;20202;-83
2022/12/28 05:01:33;;;;;;;1.43;1.33;;;;;;;5.60;76.08;96203.81;6124742;23;20589;-83
2022/12/28 05:03:59;;;;;;;1.60;1.20;;;;;;;5.62;76.16;96208.81;6124101;23;20199;-83
2022/12/28 05:06:26;;;;;;;1.47;1.13;;;;;;;5.59;76.08;96199.66;6124150;23;20219;-82
2022/12/28 05:08:53;;;;;;;1.20;1.10;;;;;;;5.56;76.04;96197.38;6124346;23;20521;-82
2022/12/28 05:11:21;;;;;;;1.10;1.03;;;;;;;5.54;75.95;96205.19;6124259;23;20198;-83
2022/12/28 05:13:48;;;;;;;0.80;0.80;;;;;;;5.55;76.47;96208.53;6124891;23;20203;-83
2022/12/28 05:16:18;;;;;;;1.00;1.00;;;;;;;5.54;76.17;96202.63;6124589;23;20231;-82
2022/12/28 05:21:38;;;;;;;1.30;1.20;;;;;;;5.45;76.50;96195.72;6095086;23;20841;-83
2022/12/28 05:24:05;;;;;;;1.10;0.93;;;;;;;5.48;76.46;96174.22;6124218;23;20195;-81
2022/12/28 05:26:31;;;;;;;0.90;0.90;;;;;;;5.44;76.59;96170.31;6123738;23;20211;-82
2022/12/28 05:28:58;;;;;;;1.20;1.00;;;;;;;5.47;76.42;96178.53;6123011;23;20179;-81
2022/12/28 05:31:26;;;;;;;0.87;0.87;;;;;;;5.46;76.37;96174.34;6101851;23;20179;-82
2022/12/28 05:33:54;;;;;;;1.20;1.10;;;;;;;5.47;76.26;96170.88;6114970;23;20278;-82
2022/12/28 05:36:22;;;;;;;1.17;1.07;;;;;;;5.53;76.22;96161.88;6122916;23;20182;-83
2022/12/28 05:38:49;;;;;;;1.10;1.00;;;;;;;5.54;76.12;96164.31;6123168;23;20179;-83
2022/12/28 05:41:17;;;;;;;0.90;0.90;;;;;;;5.53;76.07;96170.34;6123176;23;20661;-82
2022/12/28 05:43:45;;;;;;;1.27;1.10;;;;;;;5.53;75.81;96180.56;6124200;23;20200;-83
2022/12/28 05:46:13;;;;;;;1.23;1.00;;;;;;;5.56;75.77;96174.41;6125836;23;20202;-82
2022/12/28 05:48:42;;;;;;;1.23;1.13;;;;;;;5.60;75.22;96170.63;6125444;23;20179;-81
2022/12/28 05:51:10;;;;;;;1.30;1.10;;;;;;;5.65;75.37;96183.81;6122812;23;20238;-81
2022/12/28 05:53:37;;;;;;;1.33;1.23;;;;;;;5.67;75.01;96181.94;6122377;23;20514;-83
2022/12/28 05:56:06;;;;;;;1.23;1.00;;;;;;;5.67;75.00;96187.03;6124681;23;20164;-81
2022/12/28 05:58:33;;;;;;;1.20;1.10;;;;;;;5.64;74.89;96182.19;6125722;23;20164;-83
2022/12/28 06:01:05;;;;;;;1.50;1.03;;;;;;;5.61;75.12;96192.66;6126655;23;20239;-81
2022/12/28 06:03:31;;;;;;;1.53;1.30;;;;;;;5.58;75.21;96181.94;6125964;23;20247;-83
2022/12/28 06:06:04;;;;;;;1.43;1.20;;;;;;;5.61;75.34;96179.91;6126007;23;20186;-82
2022/12/28 06:08:30;;;;;;;1.20;1.10;;;;;;;5.63;75.32;96179.78;6121502;23;20174;-82
2022/12/28 06:11:00;;;;;;;1.47;1.20;;;;;;;5.62;75.20;96178.16;6125131;23;20183;-83
2022/12/28 06:13:26;;;;;;;1.40;1.30;;;;;;;5.56;75.53;96176.94;6124783;23;20231;-81
2022/12/28 06:15:53;;;;;;;1.33;1.20;;;;;;;5.54;75.91;96181.38;6126238;23;20176;-82
2022/12/28 06:18:19;;;;;;;1.33;1.20;;;;;;;5.54;75.62;96171.97;6124558;23;20179;-82
2022/12/28 06:20:46;;;;;;;0.90;0.90;;;;;;;5.60;75.95;96175.72;6125006;23;20160;-82
2022/12/28 06:23:14;;;;;;;1.00;1.00;;;;;;;5.61;75.72;96182.47;6125093;23;20212;-83
2022/12/28 06:25:40;;;;;;;1.47;1.10;;;;;;;5.60;75.56;96185.13;6125137;23;20219;-83
2022/12/28 06:28:10;;;;;;;1.07;1.00;;;;;;;5.53;75.85;96185.69;6131497;23;20865;-83
2022/12/28 06:30:36;;;;;;;1.33;1.20;;;;;;;5.53;75.81;96188.25;6127136;23;20180;-83
2022/12/28 06:33:02;;;;;;;1.10;1.00;;;;;;;5.49;76.31;96189.44;6124215;23;20211;-82
2022/12/28 06:35:29;;;;;;;2.17;1.10;;;;;;;5.52;76.19;96186.63;6123698;23;20641;-82
2022/12/28 06:37:55;;;;;;;1.37;1.10;;;;;;;5.63;75.73;96182.31;6125420;23;20207;-83
2022/12/28 06:40:23;;;;;;;3.00;1.10;;;;;;;5.64;75.41;96186.50;6126673;23;20184;-82
2022/12/28 06:42:49;;;;;;;1.20;1.10;;;;;;;5.65;75.70;96188.13;6125232;23;20206;-83
2022/12/28 06:45:16;;;;;;;1.03;1.00;;;;;;;5.58;75.71;96177.59;6125957;23;20203;-83
2022/12/28 06:47:42;;;;;;;2.30;1.30;;;;;;;5.65;76.20;96181.25;6125617;23;20180;-84
2022/12/28 06:50:09;;;;;;;1.20;1.10;;;;;;;5.70;75.77;96176.56;6125504;23;20238;-84
2022/12/28 06:52:35;;;;;;;1.47;1.37;;;;;;;5.69;75.77;96185.16;6126653;23;20734;-84
2022/12/28 06:55:02;;;;;;;1.60;1.10;;;;;;;5.67;75.37;96181.94;6126010;23;20180;-83
2022/12/28 06:57:30;;;;;;;1.97;1.10;;;;;;;5.67;75.60;96171.72;6125371;23;20254;-82
2022/12/28 06:59:56;;;;;;;1.20;1.10;;;;;;;5.69;75.44;96177.50;6125085;23;20182;-84
2022/12/28 07:02:23;;;;;;;1.47;1.07;;;;;;;5.70;75.71;96171.47;6126406;23;20186;-83
2022/12/28 07:04:49;;;;;;;1.87;1.47;;;;;;;5.68;75.50;96175.09;6125419;23;20183;-84
2022/12/28 07:07:16;;;;;;;1.20;1.10;;;;;;;5.61;75.65;96174.78;6125637;23;20180;-84
2022/12/28 07:09:42;;;;;;;1.30;1.20;;;;;;;5.55;75.68;96183.81;6125443;23;20654;-83
2022/12/28 07:12:08;;;;;;;1.33;1.20;;;;;;;5.62;75.73;96183.25;6125427;23;20179;-83
2022/12/28 07:14:36;;;;;;;1.30;1.20;;;;;;;5.68;75.68;96183.56;6125179;23;20214;-84
2022/12/28 07:17:02;;;;;;;2.70;1.10;;;;;;;5.73;75.80;96181.41;6125197;23;20188;-82
2022/12/28 07:19:29;;;;;;;1.17;1.07;;;;;;;5.76;75.12;96176.06;6125649;23;20183;-82
2022/12/28 07:21:55;;;;;;;1.20;1.10;;;;;;;5.83;75.06;96171.19;6125339;23;20179;-83
2022/12/28 07:24:22;;;;;;;1.20;1.13;;;;;;;5.86;74.75;96179.41;6124635;23;20195;-82
2022/12/28 07:26:48;;;;;;;1.33;1.20;;;;;;;5.87;74.31;96175.13;6125743;23;20550;-83
2022/12/28 07:29:14;;;;;;;1.20;1.10;;;;;;;5.85;74.36;96172.69;6123799;23;20179;-83
2022/12/28 07:31:42;;;;;;;1.10;1.00;;;;;;;5.94;74.19;96178.78;6124351;23;20790;-81
2022/12/28 07:34:09;;;;;;;1.33;1.20;;;;;;;5.94;74.10;96173.69;6123876;23;20577;-83
2022/12/28 07:36:35;;;;;;;2.10;1.10;;;;;;;5.95;73.75;96182.16;6123283;23;20186;-83
2022/12/28 07:39:02;;;;;;;1.50;1.20;;;;;;;5.99;73.71;96186.03;6125012;23;20553;-82
2022/12/28 07:41:31;;;;;;;1.77;1.30;;;;;;;6.05;73.61;96186.31;6123620;23;20180;-83
2022/12/28 07:43:58;;;;;;;1.17;1.07;;;;;;;6.10;73.11;96189.28;6124106;23;20253;-82
2022/12/28 07:46:27;;;;;;;1.63;1.37;;;;;;;6.17;73.34;96192.91;6124332;23;20179;-82
2022/12/28 07:48:56;;;;;;;1.27;1.17;;;;;;;6.16;72.72;96185.38;6112017;23;20357;-83
2022/12/28 07:51:24;;;;;;;2.80;1.40;;;;;;;6.15;72.84;96186.34;6123515;23;20501;-83
2022/12/28 07:53:52;;;;;;;2.90;1.17;;;;;;;6.09;73.01;96182.56;6123718;23;20206;-83
2022/12/28 07:56:20;;;;;;;1.50;1.40;;;;;;;6.15;73.24;96176.13;6124673;23;20164;-82
2022/12/28 07:58:48;;;;;;;2.40;1.20;;;;;;;6.19;73.02;96182.56;6124379;23;20330;-82
2022/12/28 08:01:16;;;;;;;1.40;1.10;;;;;;;6.22;72.91;96180.53;6125145;23;20570;-83
2022/12/28 08:03:43;;;;;;;1.87;1.10;;;;;;;6.18;72.72;96174.06;6126123;23;20202;-83
2022/12/28 08:06:12;;;;;;;1.40;1.07;;;;;;;6.08;72.94;96160.50;6125915;23;20190;-84
2022/12/28 08:08:40;;;;;;;1.53;1.10;;;;;;;6.05;74.52;96168.44;6125627;23;20625;-80
2022/12/28 08:11:09;;;;;;;1.27;1.17;;;;;;;5.99;73.47;96174.06;6123470;23;20641;-79
2022/12/28 08:13:36;;;;;;;1.40;1.30;;;;;;;6.02;73.97;96168.69;6124895;23;20199;-81
2022/12/28 08:16:03;;;;;;;1.10;1.00;;;;;;;6.13;73.60;96170.31;6124370;23;20172;-84
2022/12/28 08:18:30;;;;;;;1.03;1.00;;;;;;;6.11;73.14;96173.00;6124796;23;20176;-84
2022/12/28 08:21:00;;;;;;;1.47;1.30;;;;;;;6.18;72.92;96170.72;6124543;23;20181;-84
2022/12/28 08:23:28;;;;;;;1.20;1.10;;;;;;;6.26;73.14;96170.84;6126352;23;20196;-84
2022/12/28 08:25:55;;;;;;;1.40;1.20;;;;;;;6.30;72.64;96176.50;6125081;23;20227;-84
2022/12/28 08:28:21;;;;;;;2.67;1.67;;;;;;;6.38;72.74;96179.19;6125753;23;20180;-84
2022/12/28 08:30:48;;;;;;;1.53;1.37;;;;;;;6.46;72.13;96184.44;6125661;23;20175;-84
2022/12/28 08:33:14;;;;;;;1.57;1.37;;;;;;;6.50;72.04;96175.56;6124354;23;20529;-83
2022/12/28 08:35:40;;;;;;;1.77;1.40;;;;;;;6.52;71.54;96169.34;6126058;23;20186;-84
2022/12/28 08:38:07;;;;;;;1.33;1.23;;;;;;;6.58;71.70;96176.47;6125767;23;20179;-84
2022/12/28 08:40:37;;;;;;;2.00;1.80;;;;;;;6.67;71.28;96174.03;6125552;23;20234;-83
2022/12/28 08:43:04;;;;;;;1.03;1.00;;;;;;;6.66;70.89;96169.88;6127267;23;20195;-84
2022/12/28 08:45:30;;;;;;;1.30;1.20;;;;;;;6.65;70.88;96173.38;6127084;23;20183;-84
2022/12/28 08:47:57;;;;;;;3.57;1.10;;;;;;;6.69;71.33;96172.16;6126497;23;20164;-83
2022/12/28 08:50:23;;;;;;;3.10;1.30;;;;;;;6.74;70.66;96162.28;6127182;23;20191;-84
2022/12/28 08:52:49;;;;;;;1.97;1.30;;;;;;;6.77;70.88;96169.69;6126752;23;20218;-84
2022/12/28 08:55:16;;;;;;;1.80;1.20;;;;;;;6.83;70.73;96167.41;6126024;23;20207;-84
2022/12/28 08:57:44;;;;;;;1.53;1.10;;;;;;;6.85;70.42;96159.59;6125756;23;20207;-84
2022/12/28 09:00:11;;;;;;;2.40;1.10;;;;;;;6.91;70.57;96149.59;6126188;23;20183;-83
2022/12/28 09:02:37;;;;;;;1.10;1.00;;;;;;;6.94;70.33;96151.06;6124280;23;20589;-84
2022/12/28 09:05:04;;;;;;;1.20;1.10;;;;;;;6.86;70.78;96149.22;6125580;23;20184;-84
2022/12/28 09:07:31;;;;;;;1.10;1.10;;;;;;;6.86;70.71;96138.16;6124941;23;20497;-84
2022/12/28 09:09:57;;;;;;;4.07;1.47;;;;;;;6.93;70.46;96141.75;6126105;23;20175;-84
2022/12/28 09:12:23;;;;;;;1.63;1.53;;;;;;;6.92;70.98;96137.63;6125029;23;20179;-83
2022/12/28 09:14:51;;;;;;;1.87;1.60;;;;;;;6.92;70.81;96130.75;6124662;23;20246;-82
2022/12/28 09:17:17;;;;;;;2.20;1.43;;;;;;;7.03;70.37;96139.19;6125156;23;20633;-85
2022/12/28 09:19:44;;;;;;;1.40;1.30;;;;;;;7.01;69.47;96141.88;6124760;23;20179;-84
2022/12/28 09:22:10;;;;;;;1.50;1.40;;;;;;;7.03;69.48;96134.88;6125611;23;20171;-85
2022/12/28 09:24:37;;;;;;;1.53;1.30;;;;;;;7.12;69.61;96139.13;6126317;23;20207;-83
2022/12/28 09:27:03;;;;;;;1.30;1.20;;;;;;;7.23;69.31;96136.41;6125824;23;20175;-84
2022/12/28 09:29:29;;;;;;;1.37;1.10;;;;;;;7.33;68.15;96127.84;6126745;23;20176;-84
2022/12/28 09:31:58;;;;;;;1.40;1.07;;;;;;;7.55;67.67;96132.56;6125306;23;20554;-83
2022/12/28 09:34:24;;;;;;;1.20;1.10;;;;;;;7.70;66.79;96114.97;6126004;23;20529;-84
2022/12/28 09:36:51;;;;;;;1.43;1.20;;;;;;;7.81;67.17;96120.69;6124627;23;20179;-83
2022/12/28 09:39:23;;;;;;;1.70;1.20;;;;;;;7.80;66.57;96120.81;6124878;23;20211;-83
2022/12/28 09:41:53;;;;;;;1.07;1.00;;;;;;;7.78;65.33;96115.84;6125474;23;20898;-84
2022/12/28 09:44:34;;;;;;;3.00;1.30;;;;;;;7.82;65.03;96113.78;6126843;23;20192;-84
2022/12/28 09:47:16;;;;;;;1.30;1.20;;;;;;;7.89;64.75;96112.22;6125269;23;20175;-84
2022/12/28 09:49:47;;;;;;;1.07;1.07;;;;;;;7.89;64.69;96107.09;6126219;23;20489;-84
2022/12/28 09:52:25;;;;;;;1.27;1.00;;;;;;;7.95;64.33;96104.78;6126188;23;20160;-84
2022/12/28 09:54:53;;;;;;;1.07;1.00;;;;;;;8.01;65.01;96105.16;6125613;23;20637;-84
2022/12/28 09:57:20;;;;;;;1.97;1.10;;;;;;;8.15;63.65;96107.97;6125008;23;20199;-84
2022/12/28 09:59:47;;;;;;;1.73;1.10;;;;;;;8.52;63.50;96104.41;6128802;23;20191;-83
2022/12/28 10:02:18;;;;;;;1.40;1.10;;;;;;;8.73;62.03;96094.59;6125650;23;20164;-84
2022/12/28 10:04:47;;;;;;;1.00;0.90;;;;;;;8.75;61.92;96086.75;6122942;23;20200;-84
2022/12/28 10:07:14;;;;;;;3.43;1.00;;;;;;;8.85;61.61;96080.53;6123542;23;20211;-83
2022/12/28 10:09:40;;;;;;;1.37;1.10;;;;;;;8.86;61.54;96087.28;6124280;23;20175;-83
2022/12/28 10:12:14;;;;;;;2.20;1.10;;;;;;;8.88;60.70;96080.22;6126270;23;20182;-84
2022/12/28 10:14:41;;;;;;;3.17;1.30;;;;;;;8.87;60.70;96081.19;6126570;23;20210;-84
2022/12/28 10:17:11;;;;;;;1.20;1.10;;;;;;;8.89;60.86;96070.75;6125312;23;20175;-84
2022/12/28 10:19:39;;;;;;;3.33;1.10;;;;;;;8.81;60.93;96073.31;6126551;23;20602;-83
2022/12/28 10:22:08;;;;;;;1.20;1.10;;;;;;;8.78;60.92;96063.34;6127039;23;20179;-84
2022/12/28 10:24:35;;;;;;;1.30;1.20;;;;;;;8.73;60.61;96055.28;6125485;23;20192;-83
2022/12/28 10:27:05;;;;;;;2.43;1.10;;;;;;;8.73;61.07;96057.84;6125283;23;20172;-82
2022/12/28 10:29:33;;;;;;;1.90;1.00;;;;;;;8.71;61.32;96052.06;6125305;23;20237;-84
2022/12/28 10:32:01;;;;;;;1.30;1.20;;;;;;;8.74;60.44;96046.63;6126439;23;20210;-83
2022/12/28 10:34:30;;;;;;;1.23;1.10;;;;;;;8.82;60.83;96041.53;6125403;23;20226;-83
2022/12/28 10:37:04;;;;;;;1.27;1.10;;;;;;;8.85;60.78;96046.38;6125760;23;20163;-84
2022/12/28 10:39:32;;;;;;;1.30;1.20;;;;;;;8.84;60.19;96039.63;6125993;23;20163;-84
2022/12/28 10:42:00;;;;;;;1.10;1.00;;;;;;;8.86;60.77;96037.69;6126858;23;20188;-84
2022/12/28 10:44:31;;;;;;;2.20;1.20;;;;;;;8.80;59.94;96031.44;6127321;23;20192;-84
2022/12/28 10:46:59;;;;;;;0.93;0.93;;;;;;;8.81;60.48;96025.34;6127501;23;20160;-83
2022/12/28 10:49:27;;;;;;;0.90;0.80;;;;;;;8.89;60.23;96027.13;6125391;23;20197;-83
2022/12/28 10:52:04;;;;;;;1.00;0.90;;;;;;;8.85;59.05;96024.03;6127009;23;20545;-83
2022/12/28 10:54:33;;;;;;;0.90;0.90;;;;;;;8.89;59.80;96020.22;6126114;23;20203;-82
2022/12/28 10:57:00;;;;;;;1.73;0.90;;;;;;;9.08;60.25;96016.59;6124357;23;20230;-82
2022/12/28 10:59:28;;;;;;;1.43;1.10;;;;;;;9.16;59.36;96011.47;6123823;23;20187;-83
2022/12/28 11:02:12;;;;;;;0.80;0.80;;;;;;;9.26;58.31;96011.31;6125017;23;20176;-84
2022/12/28 11:04:52;;;;;;;0.90;0.90;;;;;;;9.39;57.34;96011.69;6125983;23;20196;-83
2022/12/28 11:07:27;;;;;;;1.30;1.20;;;;;;;9.55;56.77;96003.19;6127279;23;20156;-83
2022/12/28 11:09:54;;;;;;;1.90;1.10;;;;;;;9.65;56.19;95996.09;6125975;23;20223;-84
2022/12/28 11:12:25;;;;;;;2.53;1.13;;;;;;;9.90;56.76;95992.56;6127193;23;20376;-84
2022/12/28 11:14:52;;;;;;;1.50;0.93;;;;;;;10.02;55.81;95986.13;6126318;23;20180;-84
2022/12/28 11:17:21;;;;;;;1.10;1.00;;;;;;;9.93;54.63;95983.75;6127458;23;20179;-85
2022/12/28 11:19:51;;;;;;;1.20;0.90;;;;;;;9.99;55.58;95986.47;6126549;23;20180;-84
2022/12/28 11:22:24;;;;;;;1.07;0.90;;;;;;;9.94;55.09;95981.00;6127310;23;20203;-85
2022/12/28 11:24:51;;;;;;;2.03;0.97;;;;;;;10.04;54.97;95976.47;6126781;23;20160;-85
2022/12/28 11:27:22;;;;;;;2.23;2.03;;;;;;;10.14;55.22;95967.78;6126607;23;20246;-83
2022/12/28 11:29:51;;;;;;;3.83;2.23;;;;;;;10.25;55.02;95967.47;6124304;23;20214;-83
2022/12/28 11:32:22;;;;;;;2.17;1.03;;;;;;;10.34;54.99;95963.91;6125300;23;20175;-83
2022/12/28 11:34:49;;;;;;;2.20;1.00;;;;;;;10.41;55.04;95964.84;6127581;23;20187;-84
2022/12/28 11:37:16;;;;;;;0.80;0.80;;;;;;;10.36;55.46;95965.34;6122155;23;20172;-84
2022/12/28 11:39:45;;;;;;;4.47;1.20;;;;;;;10.41;55.69;95961.47;6126641;23;20160;-83
2022/12/28 11:42:51;;;;;;;0.90;0.90;;;;;;;10.50;55.81;95963.06;6126888;23;20168;-83
2022/12/28 11:45:52;;;;;;;1.20;0.90;;;;;;;10.59;55.53;95968.00;6127567;23;20172;-84
2022/12/28 11:48:49;;;;;;;1.13;1.00;;;;;;;10.67;55.32;95957.66;6124773;23;20182;-84
2022/12/28 11:51:17;;;;;;;2.13;1.17;;;;;;;10.70;54.97;95959.13;6125599;23;20201;-83
2022/12/28 11:53:53;;;;;;;1.33;1.23;;;;;;;10.65;54.10;95954.47;6124035;23;20202;-84
2022/12/28 11:56:20;;;;;;;1.93;1.10;;;;;;;10.67;54.69;95941.41;6124681;23;20241;-83
2022/12/28 11:59:05;;;;;;;1.30;1.20;;;;;;;10.67;53.92;95942.22;6124483;23;20183;-84
2022/12/28 12:01:58;;;;;;;1.33;0.90;;;;;;;10.65;53.95;95939.00;6124366;23;20506;-83
2022/12/28 12:04:41;;;;;;;1.60;1.00;;;;;;;10.78;53.99;95935.88;6124580;23;20200;-83
2022/12/28 12:07:43;;;;;;;6.93;5.97;;;;;;;10.86;53.16;95935.84;6124468;23;20282;-84
2022/12/28 12:10:34;;;;;;;1.57;1.47;;;;;;;10.77;52.71;95915.47;6125921;23;20167;-84
2022/12/28 12:13:29;;;;;;;0.93;0.80;;;;;;;10.80;53.34;95912.53;6124614;23;20266;-83
2022/12/28 12:15:59;;;;;;;1.83;0.90;;;;;;;10.85;52.44;95910.25;6124181;23;20199;-83
2022/12/28 12:18:29;;;;;;;1.37;1.00;;;;;;;11.00;52.75;95911.13;6125054;23;20641;-82
2022/12/28 12:21:01;;;;;;;1.73;0.87;;;;;;;11.12;51.97;95902.03;6124559;23;20167;-83
2022/12/28 12:23:37;;;;;;;1.47;0.90;;;;;;;11.27;51.03;95895.16;6124380;23;20203;-84